Time;durP1;ratioP1;P1;durP2;ratioP2;P2;SDS_P1;SDS_P2;PMS_P1;PMS_P2;Temp;Humidity;BMP_temperature;BMP_pressure;BME280_temperature;BME280_humidity;BME280_pressure;Samples;Min_cycle;Max_cycle;Signal;HPM_P1;HPM_P2
2023/01/19 00:00:27;;;;;;;12.30;8.82;;;;;1.00;97336.00;;;;4902726;29;20048;-60
2023/01/19 00:02:53;;;;;;;15.55;8.02;;;;;1.00;97341.00;;;;4902395;29;20059;-62
2023/01/19 00:05:20;;;;;;;14.02;9.23;;;;;1.10;97346.00;;;;4900668;29;20100;-61
2023/01/19 00:07:47;;;;;;;15.70;9.45;;;;;1.10;97351.00;;;;4902383;29;20092;-61
2023/01/19 00:10:14;;;;;;;15.20;8.88;;;;;1.10;97347.00;;;;4902235;29;20045;-61
2023/01/19 00:12:40;;;;;;;17.30;9.27;;;;;1.10;97352.00;;;;4902518;29;20052;-61
2023/01/19 00:15:07;;;;;;;13.45;8.93;;;;;1.20;97357.00;;;;4901836;29;20501;-62
2023/01/19 00:17:34;;;;;;;14.50;9.15;;;;;1.30;97358.00;;;;4903175;29;20068;-61
2023/01/19 00:20:01;;;;;;;14.88;9.27;;;;;1.40;97363.00;;;;4901422;29;20048;-62
2023/01/19 00:22:27;;;;;;;17.42;8.43;;;;;1.50;97365.00;;;;4902385;29;20075;-62
2023/01/19 00:24:54;;;;;;;16.02;9.32;;;;;1.60;97373.00;;;;4900416;29;20052;-61
2023/01/19 00:27:20;;;;;;;17.55;9.25;;;;;1.60;97367.00;;;;4902485;29;20107;-63
2023/01/19 00:29:46;;;;;;;16.55;9.05;;;;;1.70;97373.00;;;;4902905;29;20100;-62
2023/01/19 00:32:13;;;;;;;13.77;9.57;;;;;1.80;97376.00;;;;4901073;29;20049;-62
2023/01/19 00:34:48;;;;;;;16.10;9.00;;;;;1.80;97376.00;;;;4901574;29;20132;-63
2023/01/19 00:37:16;;;;;;;12.52;8.95;;;;;1.80;97375.00;;;;4900985;29;20458;-61
2023/01/19 00:39:42;;;;;;;14.32;9.05;;;;;1.80;97362.00;;;;4900940;29;20048;-62
2023/01/19 00:45:10;;;;;;;13.60;8.70;;;;;1.80;97378.00;;;;4897291;29;20096;-62
2023/01/19 00:47:38;;;;;;;14.82;8.77;;;;;1.80;97380.00;;;;4899069;29;20498;-62
2023/01/19 00:50:06;;;;;;;14.63;8.85;;;;;1.70;97375.00;;;;4899145;29;20068;-62
2023/01/19 00:52:32;;;;;;;13.10;9.25;;;;;1.70;97380.00;;;;4897696;29;20462;-61
2023/01/19 00:54:59;;;;;;;13.93;9.40;;;;;1.70;97388.00;;;;4898285;29;20502;-62
2023/01/19 00:57:26;;;;;;;15.77;9.80;;;;;1.70;97385.00;;;;4899075;29;20053;-62
2023/01/19 00:59:52;;;;;;;13.20;8.85;;;;;1.70;97376.00;;;;4899153;29;20458;-60
2023/01/19 01:02:19;;;;;;;15.45;10.35;;;;;1.70;97382.00;;;;4897885;29;20468;-62
2023/01/19 01:04:46;;;;;;;17.90;10.30;;;;;1.70;97386.00;;;;4898414;29;20471;-62
2023/01/19 01:07:12;;;;;;;16.85;9.10;;;;;1.70;97390.00;;;;4898710;29;20107;-62
2023/01/19 01:09:39;;;;;;;17.40;10.25;;;;;1.70;97386.00;;;;4898433;29;20068;-62
2023/01/19 01:12:05;;;;;;;13.88;9.77;;;;;1.70;97399.00;;;;4898502;29;20048;-61
2023/01/19 01:14:32;;;;;;;17.30;10.00;;;;;1.70;97390.00;;;;4897882;29;20048;-62
2023/01/19 01:16:59;;;;;;;15.35;10.50;;;;;1.70;97385.00;;;;4897281;29;20057;-61
2023/01/19 01:19:26;;;;;;;20.90;11.35;;;;;1.70;97395.00;;;;4898476;29;20048;-62
2023/01/19 01:21:52;;;;;;;18.38;10.98;;;;;1.70;97390.00;;;;4897037;29;20052;-61
2023/01/19 01:24:19;;;;;;;17.88;10.15;;;;;1.70;97390.00;;;;4896405;29;20062;-62
2023/01/19 01:26:46;;;;;;;16.75;11.35;;;;;1.70;97388.00;;;;4898254;29;20430;-62
2023/01/19 01:29:12;;;;;;;20.77;11.93;;;;;1.70;97391.00;;;;4898406;29;20048;-62
2023/01/19 01:31:39;;;;;;;16.60;10.75;;;;;1.70;97391.00;;;;4898244;29;20052;-62
2023/01/19 01:34:06;;;;;;;17.42;11.05;;;;;1.80;97396.00;;;;4897693;29;20096;-61
2023/01/19 01:36:32;;;;;;;22.90;12.90;;;;;1.80;97399.00;;;;4897142;29;20052;-61
2023/01/19 01:38:59;;;;;;;19.05;11.63;;;;;1.70;97401.00;;;;4898126;29;20049;-62
2023/01/19 01:41:26;;;;;;;20.05;12.20;;;;;1.80;97408.00;;;;4897891;29;20049;-62
2023/01/19 01:43:57;;;;;;;16.83;11.48;;;;;1.80;97403.00;;;;4896731;29;20158;-62
2023/01/19 01:46:26;;;;;;;18.40;11.55;;;;;1.80;97404.00;;;;4897391;29;20052;-62
2023/01/19 01:49:08;;;;;;;19.88;11.05;;;;;1.90;97404.00;;;;4897932;29;20052;-62
2023/01/19 01:51:45;;;;;;;19.38;12.07;;;;;1.90;97395.00;;;;4896670;29;20045;-62
2023/01/19 01:54:28;;;;;;;16.83;10.68;;;;;1.90;97400.00;;;;4895145;29;20063;-61
2023/01/19 01:57:01;;;;;;;19.98;11.75;;;;;1.90;97403.00;;;;4896950;29;20119;-62
2023/01/19 01:59:38;;;;;;;20.38;12.40;;;;;2.00;97408.00;;;;4897814;29;20051;-62
2023/01/19 02:05:10;;;;;;;20.20;11.27;;;;;2.00;97405.00;;;;4897493;29;20127;-62
2023/01/19 02:13:19;;;;;;;19.25;11.25;;;;;2.00;97421.00;;;;4896316;29;20104;-62
2023/01/19 02:15:48;;;;;;;18.60;11.75;;;;;2.10;97421.00;;;;4896053;29;20050;-62
2023/01/19 02:18:15;;;;;;;20.10;11.73;;;;;2.10;97424.00;;;;4897794;29;20044;-63
2023/01/19 02:20:51;;;;;;;17.52;10.50;;;;;2.10;97424.00;;;;4896815;29;20506;-61
2023/01/19 02:23:29;;;;;;;17.02;10.50;;;;;2.00;97429.00;;;;4897689;29;20051;-62
2023/01/19 02:25:55;;;;;;;20.92;12.07;;;;;2.00;97423.00;;;;4897109;29;20112;-62
2023/01/19 02:28:22;;;;;;;18.02;10.52;;;;;2.00;97420.00;;;;4898201;29;20562;-61
2023/01/19 02:30:48;;;;;;;16.75;11.73;;;;;2.00;97423.00;;;;4898160;29;20048;-61
2023/01/19 02:33:15;;;;;;;20.75;11.77;;;;;2.00;97415.00;;;;4897035;29;20110;-61
2023/01/19 02:35:43;;;;;;;19.25;10.55;;;;;2.10;97413.00;;;;4896960;29;20055;-62
2023/01/19 02:38:11;;;;;;;17.73;12.35;;;;;2.10;97415.00;;;;4897826;29;20425;-62
2023/01/19 02:40:41;;;;;;;16.75;10.73;;;;;2.10;97412.00;;;;4898071;29;20451;-61
2023/01/19 02:43:08;;;;;;;18.02;10.88;;;;;2.10;97421.00;;;;4896242;29;20104;-61
2023/01/19 02:45:36;;;;;;;16.42;11.20;;;;;2.10;97418.00;;;;4896481;29;20052;-62
2023/01/19 02:48:04;;;;;;;14.55;9.60;;;;;2.10;97421.00;;;;4895954;29;20391;-62
2023/01/19 02:50:48;;;;;;;16.38;9.98;;;;;2.10;97423.00;;;;4897237;29;20116;-62
2023/01/19 02:53:28;;;;;;;16.00;11.10;;;;;2.10;97420.00;;;;4895890;29;20469;-61
2023/01/19 02:56:32;;;;;;;15.48;10.65;;;;;2.10;97416.00;;;;4896481;29;20056;-61
2023/01/19 02:59:11;;;;;;;15.80;10.77;;;;;2.20;97410.00;;;;4896023;29;20459;-61
2023/01/19 03:01:55;;;;;;;19.52;10.85;;;;;2.20;97417.00;;;;4897257;29;20048;-61
2023/01/19 03:04:24;;;;;;;19.23;11.45;;;;;2.20;97406.00;;;;4897228;29;20052;-62
2023/01/19 03:06:59;;;;;;;17.17;10.68;;;;;2.20;97399.00;;;;4896974;29;20735;-61
2023/01/19 03:09:40;;;;;;;22.27;11.68;;;;;2.20;97400.00;;;;4897863;29;20044;-60
2023/01/19 03:12:34;;;;;;;18.63;11.52;;;;;2.20;97401.00;;;;4904651;29;20047;-62
2023/01/19 03:15:14;;;;;;;18.30;10.07;;;;;2.10;97397.00;;;;4903441;29;20077;-60
2023/01/19 03:17:42;;;;;;;21.40;11.05;;;;;2.00;97405.00;;;;4905610;29;20052;-61
2023/01/19 03:20:12;;;;;;;19.45;11.38;;;;;2.10;97403.00;;;;4898230;29;20143;-61
2023/01/19 03:22:39;;;;;;;16.77;10.65;;;;;2.10;97396.00;;;;4900908;29;20064;-62
2023/01/19 03:25:07;;;;;;;15.80;10.68;;;;;2.10;97398.00;;;;4898597;29;20068;-61
2023/01/19 03:27:40;;;;;;;16.42;10.63;;;;;2.10;97398.00;;;;4896332;29;20053;-61
2023/01/19 03:30:12;;;;;;;19.95;12.32;;;;;2.10;97406.00;;;;4896061;29;20068;-62
2023/01/19 03:32:46;;;;;;;20.33;11.85;;;;;2.20;97404.00;;;;4896579;29;20049;-62
2023/01/19 03:35:15;;;;;;;17.07;11.07;;;;;2.20;97412.00;;;;4895949;29;20071;-62
2023/01/19 03:37:45;;;;;;;18.90;12.23;;;;;2.20;97411.00;;;;4896483;29;20387;-62
2023/01/19 03:40:12;;;;;;;16.83;11.35;;;;;2.20;97409.00;;;;4896495;29;20052;-62
2023/01/19 03:42:39;;;;;;;18.08;11.18;;;;;2.20;97410.00;;;;4895113;29;20040;-61
2023/01/19 03:45:07;;;;;;;16.70;11.80;;;;;2.30;97407.00;;;;4894919;29;20525;-61
2023/01/19 03:47:35;;;;;;;16.75;10.18;;;;;2.30;97410.00;;;;4896254;29;20399;-62
2023/01/19 03:50:04;;;;;;;22.10;11.27;;;;;2.30;97405.00;;;;4896321;29;20056;-61
2023/01/19 03:52:32;;;;;;;21.65;10.60;;;;;2.30;97412.00;;;;4896310;29;20082;-61
2023/01/19 03:55:00;;;;;;;16.80;10.77;;;;;2.30;97412.00;;;;4894712;29;20116;-62
2023/01/19 03:57:26;;;;;;;16.30;12.05;;;;;2.20;97419.00;;;;4896304;29;20049;-62
2023/01/19 03:59:53;;;;;;;18.00;11.60;;;;;2.20;97417.00;;;;4896313;29;20044;-62
2023/01/19 04:02:19;;;;;;;18.10;10.32;;;;;2.20;97419.00;;;;4896222;29;20044;-61
2023/01/19 04:04:46;;;;;;;15.73;11.05;;;;;2.10;97423.00;;;;4894909;29;20052;-62
2023/01/19 04:07:13;;;;;;;18.17;10.82;;;;;2.10;97420.00;;;;4897044;29;20175;-60
2023/01/19 04:09:39;;;;;;;16.42;10.25;;;;;2.10;97417.00;;;;4895593;29;20044;-61
2023/01/19 04:12:06;;;;;;;14.15;10.05;;;;;2.10;97417.00;;;;4896472;29;20387;-61
2023/01/19 04:14:33;;;;;;;23.92;13.98;;;;;2.20;97427.00;;;;4896136;29;20045;-60
2023/01/19 04:16:59;;;;;;;13.85;8.77;;;;;2.20;97434.00;;;;4896894;29;20057;-62
2023/01/19 04:19:26;;;;;;;19.13;9.85;;;;;2.10;97418.00;;;;4900361;29;20569;-61
2023/01/19 04:21:52;;;;;;;14.73;9.23;;;;;2.10;97409.00;;;;4899990;29;20044;-61
2023/01/19 04:24:19;;;;;;;13.85;10.05;;;;;2.10;97412.00;;;;4899614;29;20130;-61
2023/01/19 04:26:45;;;;;;;14.13;10.52;;;;;2.00;97415.00;;;;4900071;29;20055;-61
2023/01/19 04:29:13;;;;;;;15.20;9.98;;;;;1.90;97410.00;;;;4900126;29;20060;-62
2023/01/19 04:31:39;;;;;;;14.35;9.23;;;;;1.90;97403.00;;;;4899808;29;20045;-60
2023/01/19 04:34:06;;;;;;;13.00;8.18;;;;;1.90;97409.00;;;;4899562;29;20071;-60
2023/01/19 04:36:33;;;;;;;12.35;8.20;;;;;1.80;97399.00;;;;4900127;29;20048;-60
2023/01/19 04:38:59;;;;;;;14.80;9.40;;;;;1.80;97402.00;;;;4899846;29;20052;-61
2023/01/19 04:41:26;;;;;;;12.02;8.80;;;;;1.90;97403.00;;;;4900394;29;20502;-59
2023/01/19 04:43:52;;;;;;;11.45;7.95;;;;;1.90;97399.00;;;;4901233;29;20048;-60
2023/01/19 04:46:19;;;;;;;10.65;7.88;;;;;1.90;97394.00;;;;4898970;29;20058;-60
2023/01/19 04:48:45;;;;;;;11.63;8.07;;;;;1.90;97395.00;;;;4899213;29;20106;-62
2023/01/19 04:51:12;;;;;;;15.73;7.65;;;;;1.90;97395.00;;;;4899751;29;20049;-62
2023/01/19 04:53:38;;;;;;;10.18;7.25;;;;;1.90;97414.00;;;;4899598;29;20041;-62
2023/01/19 04:56:05;;;;;;;10.82;8.02;;;;;1.90;97407.00;;;;4898981;29;20052;-62
2023/01/19 04:58:32;;;;;;;10.95;8.15;;;;;1.80;97417.00;;;;4898226;29;20060;-62
2023/01/19 05:01:31;;;;;;;10.73;7.68;;;;;1.70;97416.00;;;;5280472;23;20038;31
2023/01/19 05:03:58;;;;;;;12.45;7.53;;;;;1.70;97405.00;;;;4842217;29;20050;-63
2023/01/19 05:06:25;;;;;;;11.73;7.55;;;;;1.70;97419.00;;;;4843468;29;20518;-63
2023/01/19 05:08:51;;;;;;;12.48;8.05;;;;;1.70;97417.00;;;;4843909;29;20559;-64
2023/01/19 05:11:18;;;;;;;12.10;8.52;;;;;1.80;97429.00;;;;4843555;29;20038;-63
2023/01/19 05:13:44;;;;;;;13.07;8.68;;;;;1.80;97428.00;;;;4860450;29;20050;-62
2023/01/19 05:16:12;;;;;;;12.73;8.02;;;;;1.80;97431.00;;;;4849118;29;20076;-62
2023/01/19 05:18:39;;;;;;;11.10;8.50;;;;;1.80;97439.00;;;;4848905;29;20050;-61
2023/01/19 05:21:06;;;;;;;13.82;9.63;;;;;1.80;97426.00;;;;4847939;29;20507;-62
2023/01/19 05:23:33;;;;;;;13.23;8.82;;;;;1.80;97424.00;;;;4846194;29;20042;-62
2023/01/19 05:26:02;;;;;;;15.07;9.75;;;;;1.90;97428.00;;;;4845116;29;20050;-62
2023/01/19 05:28:30;;;;;;;15.35;9.20;;;;;1.90;97429.00;;;;4845402;29;20045;-62
2023/01/19 05:30:57;;;;;;;14.45;9.38;;;;;1.90;97432.00;;;;4847013;29;20056;-61
2023/01/19 05:33:24;;;;;;;13.30;8.98;;;;;2.00;97437.00;;;;4847423;29;20042;-62
2023/01/19 05:35:52;;;;;;;13.60;9.60;;;;;2.00;97434.00;;;;4861299;29;20077;-61
2023/01/19 05:38:19;;;;;;;14.25;10.32;;;;;2.00;97424.00;;;;4845592;29;20122;-61
2023/01/19 05:40:59;;;;;;;13.38;10.25;;;;;2.00;97430.00;;;;4846571;29;20568;-62
2023/01/19 05:43:26;;;;;;;17.60;10.88;;;;;2.10;97423.00;;;;4846521;29;20057;-62
2023/01/19 05:45:52;;;;;;;17.15;10.77;;;;;2.10;97430.00;;;;4844233;29;20503;-62
2023/01/19 05:48:19;;;;;;;16.92;10.82;;;;;2.10;97427.00;;;;4845050;29;20054;-60
2023/01/19 05:50:48;;;;;;;14.88;11.07;;;;;2.10;97419.00;;;;4844989;29;20061;-62
2023/01/19 05:53:15;;;;;;;15.77;11.32;;;;;2.10;97429.00;;;;4842981;29;20399;-62
2023/01/19 05:55:42;;;;;;;21.00;13.15;;;;;2.20;97428.00;;;;4843349;29;20136;-62
2023/01/19 05:58:09;;;;;;;22.52;12.38;;;;;2.20;97448.00;;;;4843883;29;20056;-62
2023/01/19 06:00:35;;;;;;;18.42;11.73;;;;;2.20;97452.00;;;;4843462;29;20057;-61
2023/01/19 06:03:02;;;;;;;18.23;11.38;;;;;2.10;97449.00;;;;4843597;29;20050;-63
2023/01/19 06:05:29;;;;;;;19.88;12.98;;;;;2.20;97444.00;;;;4842192;29;20110;-61
2023/01/19 06:07:56;;;;;;;23.35;12.45;;;;;2.20;97451.00;;;;4843104;29;20045;-62
2023/01/19 06:10:22;;;;;;;18.83;12.57;;;;;2.20;97445.00;;;;4843077;29;20049;-62
2023/01/19 06:12:51;;;;;;;20.85;13.38;;;;;2.20;97457.00;;;;4843278;29;20464;-62
2023/01/19 06:15:18;;;;;;;20.88;12.82;;;;;2.20;97447.00;;;;4842360;29;20049;-62
2023/01/19 06:17:44;;;;;;;18.35;12.63;;;;;2.20;97454.00;;;;4842956;29;20050;-62
2023/01/19 06:20:12;;;;;;;21.45;13.02;;;;;2.20;97461.00;;;;4841877;29;20056;-63
2023/01/19 06:22:39;;;;;;;19.50;13.43;;;;;2.20;97457.00;;;;4842958;29;20050;-63
2023/01/19 06:25:06;;;;;;;17.98;12.32;;;;;2.20;97463.00;;;;4842416;29;20058;-63
2023/01/19 06:27:32;;;;;;;20.13;12.77;;;;;2.20;97460.00;;;;4842783;29;20058;-62
2023/01/19 06:29:59;;;;;;;21.23;13.52;;;;;2.20;97461.00;;;;4842998;29;20046;-63
2023/01/19 06:32:25;;;;;;;21.92;14.52;;;;;2.20;97461.00;;;;4843158;29;20038;-63
2023/01/19 06:34:52;;;;;;;21.13;12.90;;;;;2.30;97459.00;;;;4841197;29;20046;-63
2023/01/19 06:37:19;;;;;;;22.77;13.77;;;;;2.30;97462.00;;;;4841600;29;20050;-63
2023/01/19 06:39:46;;;;;;;23.95;14.30;;;;;2.30;97460.00;;;;4855793;29;20064;-63
2023/01/19 06:42:13;;;;;;;21.65;13.95;;;;;2.20;97468.00;;;;4842649;29;20046;-62
2023/01/19 06:44:46;;;;;;;22.77;13.40;;;;;2.30;97463.00;;;;4841720;29;20468;-63
2023/01/19 06:47:14;;;;;;;18.92;12.57;;;;;2.20;97470.00;;;;4842142;29;20050;-63
2023/01/19 06:49:42;;;;;;;19.80;13.25;;;;;2.20;97474.00;;;;4841994;29;20046;-64
2023/01/19 06:52:17;;;;;;;19.40;13.18;;;;;2.20;97481.00;;;;4842058;29;20054;-63
2023/01/19 06:54:44;;;;;;;21.15;13.75;;;;;2.20;97482.00;;;;4841514;29;20414;-63
2023/01/19 06:57:12;;;;;;;22.10;14.35;;;;;2.20;97493.00;;;;4841804;29;20290;-63
2023/01/19 06:59:38;;;;;;;22.35;14.98;;;;;2.10;97493.00;;;;4856048;29;20053;-63
2023/01/19 07:02:05;;;;;;;19.45;13.93;;;;;2.20;97509.00;;;;4841822;29;20512;-60
2023/01/19 07:04:51;;;;;;;20.80;13.68;;;;;2.10;97514.00;;;;4841622;29;20090;-63
2023/01/19 07:07:18;;;;;;;20.60;13.18;;;;;2.10;97499.00;;;;4842209;29;20478;-62
2023/01/19 07:09:45;;;;;;;21.30;13.55;;;;;2.10;97513.00;;;;4842492;29;20057;-62
2023/01/19 07:12:13;;;;;;;21.60;13.18;;;;;2.10;97518.00;;;;4842539;29;20581;-62
2023/01/19 07:14:39;;;;;;;18.02;13.15;;;;;2.20;97519.00;;;;4842172;29;20054;-63
2023/01/19 07:17:06;;;;;;;18.52;12.43;;;;;2.20;97516.00;;;;4842454;29;20049;-63
2023/01/19 07:19:34;;;;;;;19.40;13.27;;;;;2.10;97530.00;;;;4842197;29;20046;-63
2023/01/19 07:22:02;;;;;;;21.23;13.27;;;;;2.10;97522.00;;;;4842267;29;20058;-63
2023/01/19 07:24:33;;;;;;;17.13;12.85;;;;;2.20;97529.00;;;;4841382;29;20460;-63
2023/01/19 07:26:59;;;;;;;19.90;11.25;;;;;2.20;97531.00;;;;4856345;29;20054;-62
2023/01/19 07:29:26;;;;;;;18.17;12.88;;;;;2.20;97525.00;;;;4842049;29;20054;-62
2023/01/19 07:31:55;;;;;;;22.58;13.30;;;;;2.30;97527.00;;;;4840637;29;20419;-62
2023/01/19 07:34:22;;;;;;;17.00;12.63;;;;;2.30;97524.00;;;;4841064;29;20088;-63
2023/01/19 07:36:48;;;;;;;18.00;12.02;;;;;2.30;97537.00;;;;4855904;29;20054;-63
2023/01/19 07:39:15;;;;;;;23.63;13.15;;;;;2.30;97535.00;;;;4841700;29;20484;-63
2023/01/19 07:41:41;;;;;;;18.77;13.00;;;;;2.30;97523.00;;;;4841613;29;20121;-62
2023/01/19 07:44:08;;;;;;;20.40;11.18;;;;;2.30;97534.00;;;;4841454;29;20057;-64
2023/01/19 07:46:35;;;;;;;18.95;12.77;;;;;2.40;97539.00;;;;4841909;29;20046;-63
2023/01/19 07:49:01;;;;;;;16.92;12.27;;;;;2.40;97538.00;;;;4842003;29;20061;-62
2023/01/19 07:51:28;;;;;;;19.25;12.63;;;;;2.40;97547.00;;;;4843214;29;20050;-61
2023/01/19 07:53:54;;;;;;;18.45;11.77;;;;;2.50;97535.00;;;;4860198;29;20085;-61
2023/01/19 07:56:22;;;;;;;19.40;12.40;;;;;2.40;97537.00;;;;4845160;29;20275;-62
2023/01/19 07:58:51;;;;;;;18.85;12.02;;;;;2.50;97548.00;;;;4851245;29;20329;-61
2023/01/19 08:01:17;;;;;;;21.20;13.40;;;;;2.50;97558.00;;;;4854450;29;20078;-62
2023/01/19 08:03:46;;;;;;;20.95;13.57;;;;;2.50;97552.00;;;;4849122;29;20489;-61
2023/01/19 08:06:27;;;;;;;21.85;13.90;;;;;2.60;97565.00;;;;4844864;29;20069;-62
2023/01/19 08:08:53;;;;;;;19.85;13.32;;;;;2.50;97558.00;;;;4845327;29;20773;-62
2023/01/19 08:11:20;;;;;;;21.05;14.10;;;;;2.50;97574.00;;;;4845196;29;20137;-62
2023/01/19 08:13:46;;;;;;;21.90;14.57;;;;;2.60;97575.00;;;;4845276;29;20422;-62
2023/01/19 08:16:13;;;;;;;21.45;13.90;;;;;2.70;97569.00;;;;4844909;29;20495;-62
2023/01/19 08:18:39;;;;;;;20.15;13.13;;;;;2.70;97576.00;;;;4844483;29;20053;-62
2023/01/19 08:21:06;;;;;;;20.10;14.20;;;;;2.70;97569.00;;;;4845098;29;20046;-61
2023/01/19 08:23:33;;;;;;;21.40;14.43;;;;;2.70;97571.00;;;;4845037;29;20532;-61
2023/01/19 08:26:00;;;;;;;21.55;14.13;;;;;2.90;97571.00;;;;4844285;29;20106;-61
2023/01/19 08:28:26;;;;;;;18.52;12.48;;;;;2.90;97567.00;;;;4847183;29;20049;-62
2023/01/19 08:30:53;;;;;;;22.77;14.20;;;;;2.90;97573.00;;;;4845471;29;20050;-61
2023/01/19 08:33:22;;;;;;;20.77;13.40;;;;;2.90;97575.00;;;;4843263;29;20048;-62
2023/01/19 08:35:53;;;;;;;21.52;13.38;;;;;2.90;97569.00;;;;4843794;29;20500;-62
2023/01/19 08:38:19;;;;;;;23.73;13.15;;;;;3.00;97563.00;;;;4844290;29;20069;-62
2023/01/19 08:40:47;;;;;;;20.30;14.27;;;;;3.00;97569.00;;;;4844330;29;20068;-61
2023/01/19 08:43:16;;;;;;;19.70;12.80;;;;;2.90;97566.00;;;;4843965;29;20380;-62
2023/01/19 08:45:46;;;;;;;26.20;14.75;;;;;2.90;97566.00;;;;4843481;29;20046;-63
2023/01/19 08:48:15;;;;;;;23.98;15.95;;;;;2.90;97559.00;;;;4844220;29;20054;-63
2023/01/19 08:50:45;;;;;;;24.10;14.43;;;;;2.90;97573.00;;;;4844140;29;20049;-64
2023/01/19 08:53:12;;;;;;;18.67;13.57;;;;;2.90;97556.00;;;;4858430;29;20116;-60
2023/01/19 08:55:39;;;;;;;19.42;13.43;;;;;3.10;97564.00;;;;4842248;29;20050;-61
2023/01/19 08:58:07;;;;;;;17.75;12.75;;;;;3.20;97565.00;;;;4844035;29;20049;-62
2023/01/19 09:00:39;;;;;;;16.95;11.20;;;;;3.20;97563.00;;;;4844175;29;20494;-62
2023/01/19 09:03:07;;;;;;;15.80;10.93;;;;;3.20;97568.00;;;;4843010;29;20087;-62
2023/01/19 09:05:37;;;;;;;16.85;11.25;;;;;3.20;97557.00;;;;4843476;29;20094;-62
2023/01/19 09:08:07;;;;;;;15.98;11.40;;;;;3.30;97563.00;;;;4858048;29;20108;-62
2023/01/19 09:10:34;;;;;;;14.98;10.18;;;;;3.30;97560.00;;;;4843767;29;20098;-62
2023/01/19 09:13:06;;;;;;;14.82;10.32;;;;;3.20;97560.00;;;;4843564;29;20064;-62
2023/01/19 09:15:36;;;;;;;17.30;10.75;;;;;3.20;97563.00;;;;4843087;29;20075;-62
2023/01/19 09:18:05;;;;;;;14.43;10.00;;;;;3.20;97558.00;;;;4843885;29;20041;-63
2023/01/19 09:20:34;;;;;;;15.18;10.70;;;;;3.20;97567.00;;;;4843656;29;20050;-62
2023/01/19 09:23:01;;;;;;;14.13;10.77;;;;;3.20;97567.00;;;;4843516;29;20078;-63
2023/01/19 09:25:27;;;;;;;15.13;10.15;;;;;3.30;97567.00;;;;4842834;29;20522;-63
2023/01/19 09:27:55;;;;;;;17.17;10.25;;;;;3.30;97566.00;;;;4843306;29;20480;-62
2023/01/19 09:30:21;;;;;;;15.13;10.23;;;;;3.30;97575.00;;;;4843379;29;20078;-63
2023/01/19 09:32:48;;;;;;;15.13;10.50;;;;;3.30;97576.00;;;;4843279;29;20046;-63
2023/01/19 09:35:14;;;;;;;15.57;10.65;;;;;3.40;97574.00;;;;4843071;29;20046;-62
2023/01/19 09:37:45;;;;;;;13.52;9.77;;;;;3.40;97577.00;;;;4844721;29;20400;-61
2023/01/19 09:40:12;;;;;;;16.10;10.68;;;;;3.50;97584.00;;;;4858946;29;20496;-62
2023/01/19 09:42:47;;;;;;;13.50;9.88;;;;;3.60;97583.00;;;;4843414;29;20500;-62
2023/01/19 09:45:33;;;;;;;13.30;9.88;;;;;3.50;97580.00;;;;4842958;29;20056;-62
2023/01/19 09:48:01;;;;;;;13.73;10.15;;;;;3.50;97580.00;;;;4843485;29;20500;-62
2023/01/19 09:50:35;;;;;;;18.60;11.65;;;;;3.60;97580.00;;;;4857581;29;20089;-62
2023/01/19 09:53:12;;;;;;;12.95;9.80;;;;;3.70;97570.00;;;;4857346;29;20721;-62
2023/01/19 09:55:41;;;;;;;16.85;10.18;;;;;3.90;97593.00;;;;4842924;29;20411;-63
2023/01/19 09:58:17;;;;;;;16.27;10.48;;;;;4.00;97584.00;;;;4842949;29;20515;-60
2023/01/19 10:00:54;;;;;;;12.57;9.52;;;;;4.20;97588.00;;;;4842970;29;20050;-60
2023/01/19 10:03:22;;;;;;;12.55;9.07;;;;;4.30;97591.00;;;;4842658;29;20046;-60
2023/01/19 10:06:00;;;;;;;12.00;8.32;;;;;4.20;97598.00;;;;4842718;29;20464;-59
2023/01/19 10:08:43;;;;;;;9.90;8.15;;;;;4.10;97605.00;;;;4857089;29;20511;-62
2023/01/19 10:11:35;;;;;;;9.95;7.78;;;;;4.10;97607.00;;;;4842664;29;20046;-62
2023/01/19 10:14:48;;;;;;;13.40;9.57;;;;;4.10;97606.00;;;;4856013;29;20046;-62
2023/01/19 10:17:40;;;;;;;11.10;8.90;;;;;4.10;97608.00;;;;4842539;29;20049;-61
2023/01/19 10:20:16;;;;;;;12.25;8.40;;;;;4.20;97607.00;;;;4841437;29;20069;-61
2023/01/19 10:22:47;;;;;;;12.00;8.00;;;;;4.30;97606.00;;;;4842786;29;20061;-61
2023/01/19 10:25:18;;;;;;;10.90;7.88;;;;;4.30;97612.00;;;;4855873;29;20057;-61
2023/01/19 10:27:45;;;;;;;12.27;8.40;;;;;4.30;97606.00;;;;4842628;29;20136;-61
2023/01/19 10:30:22;;;;;;;14.27;9.50;;;;;4.30;97607.00;;;;4842678;29;20132;-61
2023/01/19 10:32:50;;;;;;;12.00;7.95;;;;;4.40;97613.00;;;;4842467;29;20114;-61
2023/01/19 10:35:23;;;;;;;12.48;8.85;;;;;4.50;97609.00;;;;4841995;29;20046;-61
2023/01/19 10:37:53;;;;;;;17.42;8.93;;;;;4.50;97601.00;;;;4841177;29;20134;-62
2023/01/19 10:40:35;;;;;;;11.95;9.07;;;;;4.50;97610.00;;;;4842567;29;20106;-62
2023/01/19 10:43:31;;;;;;;12.25;7.65;;;;;4.50;97606.00;;;;4842087;29;20054;-61
2023/01/19 10:45:57;;;;;;;14.10;8.65;;;;;4.40;97609.00;;;;4841626;29;20049;-62
2023/01/19 10:48:24;;;;;;;14.10;9.15;;;;;4.40;97609.00;;;;4842311;29;20049;-62
2023/01/19 10:51:02;;;;;;;12.15;8.27;;;;;4.50;97609.00;;;;4842041;29;20054;-62
2023/01/19 10:53:28;;;;;;;11.45;8.07;;;;;4.50;97610.00;;;;4855927;29;20050;-62
2023/01/19 10:56:13;;;;;;;10.82;7.10;;;;;4.60;97603.00;;;;4841416;29;20419;-62
2023/01/19 10:58:39;;;;;;;;;;;;;4.60;97606.00;;;;4842526;29;20468;-62
2023/01/19 11:01:16;;;;;;;10.15;7.00;;;;;4.70;97598.00;;;;4841701;29;20333;-62
2023/01/19 11:03:43;;;;;;;6.38;5.38;;;;;4.80;97604.00;;;;4841781;29;20056;-62
2023/01/19 11:06:14;;;;;;;9.02;6.72;;;;;4.80;97597.00;;;;4841166;29;20053;-62
2023/01/19 11:08:43;;;;;;;9.63;6.97;;;;;4.90;97600.00;;;;4855827;29;20057;-62
2023/01/19 11:11:11;;;;;;;12.55;6.93;;;;;5.00;97597.00;;;;4841626;29;20083;-62
2023/01/19 11:13:41;;;;;;;9.55;6.65;;;;;5.10;97593.00;;;;4856059;29;20053;-61
2023/01/19 11:16:23;;;;;;;11.05;7.05;;;;;5.10;97594.00;;;;4841208;29;20465;-62
2023/01/19 11:18:55;;;;;;;10.82;6.97;;;;;5.40;97596.00;;;;4841965;29;20496;-63
2023/01/19 11:21:25;;;;;;;9.52;6.80;;;;;5.50;97603.00;;;;4840318;29;20073;-63
2023/01/19 11:23:55;;;;;;;10.68;7.07;;;;;5.60;97599.00;;;;4855748;29;20050;-62
2023/01/19 11:26:40;;;;;;;10.63;6.75;;;;;5.70;97607.00;;;;4840787;29;20046;-60
2023/01/19 11:29:24;;;;;;;8.90;6.20;;;;;5.50;97604.00;;;;4840392;29;20575;-62
2023/01/19 11:31:53;;;;;;;10.77;6.57;;;;;5.50;97591.00;;;;4841475;29;20077;-63
2023/01/19 11:34:31;;;;;;;11.15;7.45;;;;;5.50;97594.00;;;;4854925;29;20456;-62
2023/01/19 11:37:02;;;;;;;9.38;5.80;;;;;5.60;97593.00;;;;4841521;29;20045;-62
2023/01/19 11:39:43;;;;;;;10.35;6.47;;;;;5.60;97590.00;;;;4855381;29;20046;-63
2023/01/19 11:42:11;;;;;;;8.80;6.38;;;;;5.50;97587.00;;;;4841360;29;20498;-62
2023/01/19 11:44:45;;;;;;;9.02;6.82;;;;;5.50;97592.00;;;;4840870;29;20499;-62
2023/01/19 11:47:27;;;;;;;8.60;6.40;;;;;5.50;97589.00;;;;4841854;29;20399;-63
2023/01/19 11:50:00;;;;;;;10.80;6.38;;;;;5.50;97585.00;;;;4841537;29;20054;-63
2023/01/19 11:52:39;;;;;;;8.38;6.50;;;;;5.60;97576.00;;;;4841532;29;20518;-62
2023/01/19 11:55:29;;;;;;;11.52;6.80;;;;;5.60;97580.00;;;;4840848;29;20090;-62
2023/01/19 11:57:56;;;;;;;7.82;6.05;;;;;5.60;97575.00;;;;4856035;29;20046;-60
2023/01/19 12:00:41;;;;;;;9.95;6.88;;;;;5.70;97575.00;;;;4842288;29;20077;-62
2023/01/19 12:03:31;;;;;;;11.63;6.60;;;;;5.70;97572.00;;;;4841515;29;20064;-63
2023/01/19 12:06:03;;;;;;;7.63;5.22;;;;;5.60;97572.00;;;;4855118;29;20073;-60
2023/01/19 12:08:35;;;;;;;8.50;5.40;;;;;5.50;97572.00;;;;4841730;29;20054;-61
2023/01/19 12:11:04;;;;;;;9.43;5.63;;;;;5.50;97558.00;;;;4864445;29;20057;-61
2023/01/19 12:13:32;;;;;;;10.27;6.32;;;;;5.50;97568.00;;;;4859954;29;20061;-63
2023/01/19 12:16:06;;;;;;;7.72;6.25;;;;;5.40;97573.00;;;;4841059;29;20054;-61
2023/01/19 12:18:38;;;;;;;8.00;6.35;;;;;5.40;97569.00;;;;4841403;29;20060;-62
2023/01/19 12:21:05;;;;;;;8.40;6.47;;;;;5.40;97572.00;;;;4841161;29;20046;-62
2023/01/19 12:23:38;;;;;;;11.02;7.15;;;;;5.50;97571.00;;;;4841399;29;20046;-61
2023/01/19 12:26:23;;;;;;;14.20;8.37;;;;;5.60;97571.00;;;;4840903;29;20053;-62
2023/01/19 12:28:51;;;;;;;15.27;8.10;;;;;5.70;97561.00;;;;4855280;29;20423;-62
2023/01/19 12:31:20;;;;;;;10.13;6.75;;;;;5.90;97569.00;;;;4840984;29;20046;-62
2023/01/19 12:33:48;;;;;;;12.95;7.72;;;;;6.00;97580.00;;;;4841139;29;20563;-62
2023/01/19 12:36:31;;;;;;;11.65;7.13;;;;;6.10;97564.00;;;;4840876;29;20053;-62
2023/01/19 12:39:03;;;;;;;10.80;7.43;;;;;6.10;97558.00;;;;4857094;29;20057;-62